KDPL

Duplin Co Airport

Kenansville, North Carolina, USA
METAR KDPL 201900Z AUTO 24006KT 7SM BKN027 BKN035 OVC042 23/19 A2982 RMK AO2
Observed Flight Rules
Oct-20 @ 19:00 UTC (19 minutes ago) Marginal Visual Flight Rules
Wind Visibility Clouds
240° at 6 knots 7 miles
  • Broken at 2,700' AGL
  • Broken at 3,500' AGL
  • Overcast at 4,200' AGL
Temperatures Readings
Current 23°C / 73°F
Dewpoint 19°C / 66°F
Humidity 78%
Altimeter 29.82" Hg
Pressure 1010 hPa
Elevation 42
METAR KDPL 201900Z AUTO 24006KT 7SM BKN027 BKN035 OVC042 23/19 A2982 RMK AO2
Observed Flight Rules
Oct-20 @ 19:00 UTC
(19 minutes ago)
MVFR
Wind Visibility
240° at 6 knots 7 miles
Clouds
  • Broken at 2,700' AGL
  • Broken at 3,500' AGL
  • Overcast at 4,200' AGL
Temperature Dewpoint
23°C / 73°F 19°C / 66°F
Humidity Altimeter Pressure
78% 29.82" Hg 1010 hPa